createdAt,value
2022-11-29T00:01:45.600Z,101581.78
2022-11-29T00:04:11.910Z,101584.47
2022-11-29T00:06:39.929Z,101583.72
2022-11-29T00:09:09.478Z,101588.47
2022-11-29T00:11:38.054Z,101583.72
2022-11-29T00:14:07.161Z,101580.16
2022-11-29T00:16:34.030Z,101588.47
2022-11-29T00:19:00.492Z,101580.38
2022-11-29T00:21:27.283Z,101585.66
2022-11-29T00:23:53.586Z,101584.69
2022-11-29T00:26:20.177Z,101583.72
2022-11-29T00:28:46.749Z,101588.25
2022-11-29T00:31:22.981Z,101584.78
2022-11-29T00:33:49.890Z,101590.06
2022-11-29T00:36:16.961Z,101587.59
2022-11-29T00:38:43.845Z,101585.13
2022-11-29T00:41:10.885Z,101583.41
2022-11-29T00:43:37.550Z,101589.56
2022-11-29T00:46:04.504Z,101594.09
2022-11-29T00:48:31.430Z,101590.53
2022-11-29T00:51:00.605Z,101596.28
2022-11-29T00:53:27.055Z,101599.06
2022-11-29T00:55:53.991Z,101589.91
2022-11-29T00:58:20.983Z,101590.41
2022-11-29T01:00:47.739Z,101591.06
2022-11-29T01:03:15.436Z,101580.50
2022-11-29T01:05:42.395Z,101592.13
2022-11-29T01:08:09.882Z,101597.63
2022-11-29T01:10:36.178Z,101591.72
2022-11-29T01:13:02.595Z,101590.66
2022-11-29T01:15:29.195Z,101593.47
2022-11-29T01:17:55.518Z,101598.84
2022-11-29T01:20:21.854Z,101596.28
2022-11-29T01:22:48.300Z,101608.53
2022-11-29T01:25:15.298Z,101604.91
2022-11-29T01:27:41.858Z,101607.47
2022-11-29T01:30:09.934Z,101613.72
2022-11-29T01:32:36.822Z,101616.22
2022-11-29T01:35:04.019Z,101622.44
2022-11-29T01:37:30.422Z,101614.34
2022-11-29T01:39:56.883Z,101614.22
2022-11-29T01:42:23.196Z,101626.88
2022-11-29T01:44:49.475Z,101616.84
2022-11-29T01:47:18.496Z,101622.66
2022-11-29T01:49:48.684Z,101625.13
2022-11-29T01:52:22.728Z,101627.84
2022-11-29T01:54:52.338Z,101627.06
2022-11-29T01:57:20.261Z,101629.06
2022-11-29T01:59:49.598Z,101628.94
2022-11-29T02:02:21.988Z,101635.16
2022-11-29T02:04:49.471Z,101641.44
2022-11-29T02:07:16.281Z,101641.22
2022-11-29T02:09:42.764Z,101645.66
2022-11-29T02:12:38.501Z,101644.03
2022-11-29T02:15:33.244Z,101644.13
2022-11-29T02:18:20.852Z,101636.03
2022-11-29T02:21:27.392Z,101637.16
2022-11-29T02:24:14.400Z,101631.75
2022-11-29T02:26:49.618Z,101634.34
2022-11-29T02:29:15.867Z,101636.91
2022-11-29T02:32:00.167Z,101641.56
2022-11-29T02:34:37.218Z,101645.13
2022-11-29T02:37:16.063Z,101640.38
2022-11-29T02:39:48.113Z,101644.03
2022-11-29T02:42:38.899Z,101646.94
2022-11-29T02:45:23.079Z,101646.19
2022-11-29T02:48:07.817Z,101647.06
2022-11-29T02:50:55.514Z,101657.84
2022-11-29T02:53:43.269Z,101657.84
2022-11-29T02:56:34.609Z,101658.09
2022-11-29T02:59:03.916Z,101665.41
2022-11-29T03:01:40.142Z,101659.25
2022-11-29T03:04:12.642Z,101663.59
2022-11-29T03:06:53.165Z,101672.41
2022-11-29T03:09:36.834Z,101669.63
2022-11-29T03:12:18.173Z,101663.47
2022-11-29T03:14:57.374Z,101678.56
2022-11-29T03:17:52.759Z,101678.31
2022-11-29T03:20:37.411Z,101677.50
2022-11-29T03:23:09.779Z,101677.59
2022-11-29T03:25:40.241Z,101679.44
2022-11-29T03:28:17.267Z,101685.88
2022-11-29T03:30:51.140Z,101685.88
2022-11-29T03:33:38.798Z,101689.56
2022-11-29T03:36:27.345Z,101687.97
2022-11-29T03:38:58.355Z,101696.91
2022-11-29T03:41:40.162Z,101707.81
2022-11-29T03:44:27.737Z,101705.34
2022-11-29T03:47:06.432Z,101693.56
2022-11-29T03:49:37.688Z,101705.44
2022-11-29T03:52:15.456Z,101706.09
2022-11-29T03:55:14.741Z,101711.59
2022-11-29T03:57:59.131Z,101714.50
2022-11-29T04:00:32.963Z,101715.38
2022-11-29T04:03:29.109Z,101711.91
2022-11-29T04:06:21.431Z,101723.03
2022-11-29T04:09:11.519Z,101721.94
2022-11-29T04:11:49.829Z,101716.66
2022-11-29T04:14:31.410Z,101727.34
2022-11-29T04:17:57.477Z,101724.75
2022-11-29T04:21:01.091Z,101729.38
2022-11-29T04:23:59.234Z,101728.44
2022-11-29T04:27:10.831Z,101725.94
2022-11-29T04:30:01.576Z,101731.13
2022-11-29T04:32:58.740Z,101721.28
2022-11-29T04:36:06.438Z,101728.19
2022-11-29T04:38:46.781Z,101732.84
2022-11-29T04:41:52.251Z,101740.38
2022-11-29T04:44:58.091Z,101732.72
2022-11-29T04:48:01.701Z,101746.50
2022-11-29T04:50:59.639Z,101745.75
2022-11-29T04:53:41.131Z,101757.09
2022-11-29T04:56:23.486Z,101753.63
2022-11-29T04:59:04.601Z,101751.03
2022-11-29T05:01:52.871Z,101758.16
2022-11-29T05:04:40.136Z,101760.94
2022-11-29T05:07:38.388Z,101774.09
2022-11-29T05:10:16.609Z,101771.63
2022-11-29T05:12:53.029Z,101772.59
2022-11-29T05:15:25.393Z,101776.16
2022-11-29T05:18:21.852Z,101784.34
2022-11-29T05:21:12.103Z,101789.72
2022-11-29T05:24:06.587Z,101784.44
2022-11-29T05:26:41.407Z,101785.84
2022-11-29T05:29:33.923Z,101793.75
2022-11-29T05:32:22.619Z,101788.75
2022-11-29T05:35:10.713Z,101794.25
2022-11-29T05:37:45.774Z,101800.28
2022-11-29T05:40:56.679Z,101796.72
2022-11-29T05:43:54.067Z,101803.09
2022-11-29T05:46:31.395Z,101810.41
2022-11-29T05:49:06.879Z,101812.06
2022-11-29T05:51:48.602Z,101811.94
2022-11-29T05:54:14.827Z,101808.59
2022-11-29T05:57:17.157Z,101812.06
2022-11-29T05:59:44.980Z,101810.53
2022-11-29T06:02:26.559Z,101829.06
2022-11-29T06:05:20.228Z,101827.13
2022-11-29T06:08:05.081Z,101837.72
2022-11-29T06:10:36.400Z,101828.69
2022-11-29T06:13:21.478Z,101830.16
2022-11-29T06:16:12.844Z,101830.34
2022-11-29T06:19:12.991Z,101832.19
2022-11-29T06:21:53.826Z,101831.00
2022-11-29T06:24:55.396Z,101850.63
2022-11-29T06:27:32.692Z,101854.41
2022-11-29T06:30:13.166Z,101846.63
2022-11-29T06:33:14.137Z,101851.16
2022-11-29T06:35:50.846Z,101854.72
2022-11-29T06:38:29.680Z,101858.28
2022-11-29T06:41:02.047Z,101850.69
2022-11-29T06:43:29.675Z,101861.28
2022-11-29T06:46:03.138Z,101868.19
2022-11-29T06:48:38.158Z,101873.88
2022-11-29T06:51:23.676Z,101868.81
2022-11-29T06:54:11.947Z,101876.91
2022-11-29T06:56:52.072Z,101879.78
2022-11-29T06:59:44.891Z,101878.56
2022-11-29T07:02:51.461Z,101880.09
2022-11-29T07:05:28.200Z,101902.09
2022-11-29T07:07:57.845Z,101892.19
2022-11-29T07:10:30.787Z,101894.69
2022-11-29T07:12:57.778Z,101894.00
2022-11-29T07:15:24.534Z,101900.38
2022-11-29T07:18:02.974Z,101905.34
2022-11-29T07:20:50.963Z,101909.81
2022-11-29T07:23:48.691Z,101922.97
2022-11-29T07:26:38.295Z,101924.69
2022-11-29T07:29:43.747Z,101932.88
2022-11-29T07:32:26.027Z,101930.28
2022-11-29T07:35:08.517Z,101933.38
2022-11-29T07:38:18.391Z,101936.47
2022-11-29T07:40:44.617Z,101951.13
2022-11-29T07:43:36.987Z,101946.22
2022-11-29T07:46:03.345Z,101944.50
2022-11-29T07:48:29.606Z,101949.59
2022-11-29T07:50:56.786Z,101947.75
2022-11-29T07:53:24.126Z,101951.28
2022-11-29T07:55:51.072Z,101952.84
2022-11-29T07:58:17.909Z,101959.47
2022-11-29T08:00:44.900Z,101964.97
2022-11-29T08:03:11.524Z,101970.56
2022-11-29T08:05:38.494Z,101974.41
2022-11-29T08:08:05.862Z,101978.81
2022-11-29T08:10:32.402Z,101974.50
2022-11-29T08:12:58.862Z,101971.41
2022-11-29T08:15:25.585Z,101975.44
2022-11-29T08:17:52.956Z,101965.41
2022-11-29T08:20:19.807Z,101966.09
2022-11-29T08:22:57.112Z,101970.50
2022-11-29T08:25:23.802Z,101971.16
2022-11-29T08:27:50.286Z,101973.56
2022-11-29T08:30:16.962Z,101975.41
2022-11-29T08:32:48.467Z,101978.66
2022-11-29T08:35:22.006Z,101980.31
2022-11-29T08:37:48.744Z,101979.44
2022-11-29T08:48:22.887Z,101984.59
2022-11-29T08:50:50.351Z,101990.56
2022-11-29T08:53:16.674Z,101984.97
2022-11-29T08:55:43.327Z,101995.19
2022-11-29T08:58:12.770Z,102002.13
2022-11-29T09:00:40.296Z,102002.91
2022-11-29T09:03:07.562Z,102002.22
2022-11-29T09:05:33.886Z,102003.69
2022-11-29T09:08:00.279Z,102004.44
2022-11-29T09:10:26.701Z,102004.16
2022-11-29T09:12:53.030Z,102014.81
2022-11-29T09:15:19.349Z,102013.75
2022-11-29T09:17:45.627Z,102011.63
2022-11-29T09:20:12.339Z,102016.59
2022-11-29T09:22:38.638Z,102014.91
2022-11-29T09:25:05.691Z,102020.47
2022-11-29T09:27:32.216Z,102017.06
2022-11-29T09:29:58.552Z,102013.81
2022-11-29T09:32:24.908Z,102022.34
2022-11-29T09:34:52.295Z,102031.97
2022-11-29T09:37:18.842Z,102032.22
2022-11-29T09:39:45.167Z,102031.81
2022-11-29T09:42:55.100Z,102042.50
2022-11-29T09:45:29.751Z,102042.41
2022-11-29T09:48:14.938Z,102047.69
2022-11-29T09:50:48.116Z,102054.84
2022-11-29T09:54:05.304Z,102057.44
2022-11-29T09:56:40.772Z,102050.44
2022-11-29T09:59:17.143Z,102061.63
2022-11-29T10:01:53.106Z,102065.00
2022-11-29T10:04:25.336Z,102061.06
2022-11-29T10:07:02.557Z,102060.31
2022-11-29T10:09:48.906Z,102058.22
2022-11-29T10:12:37.781Z,102062.72
2022-11-29T10:15:15.923Z,102062.88
2022-11-29T10:18:01.070Z,102072.59
2022-11-29T10:20:36.430Z,102063.53
2022-11-29T10:23:20.347Z,102064.94
2022-11-29T10:25:52.855Z,102068.28
2022-11-29T10:28:21.999Z,102055.50
2022-11-29T10:30:50.219Z,102061.34
2022-11-29T10:33:23.569Z,102065.25
2022-11-29T10:35:54.135Z,102058.00
2022-11-29T10:38:30.893Z,102057.28
2022-11-29T10:41:03.839Z,102059.41
2022-11-29T10:43:30.252Z,102065.19
2022-11-29T10:45:57.855Z,102058.69
2022-11-29T10:48:30.435Z,102066.91
2022-11-29T10:50:56.843Z,102059.25
2022-11-29T10:53:31.014Z,102056.09
2022-11-29T10:56:23.811Z,102060.66
2022-11-29T10:59:01.327Z,102057.75
2022-11-29T11:01:27.851Z,102059.03
2022-11-29T11:03:56.980Z,102054.38
2022-11-29T11:06:27.678Z,102051.25
2022-11-29T11:09:14.371Z,102056.66
2022-11-29T11:11:40.868Z,102059.66
2022-11-29T11:14:27.976Z,102068.53
2022-11-29T11:16:54.382Z,102063.25
2022-11-29T11:19:26.957Z,102062.59
2022-11-29T11:21:57.931Z,102055.25
2022-11-29T11:24:28.444Z,102058.53
2022-11-29T11:26:55.618Z,102056.31
2022-11-29T11:29:25.587Z,102056.81
2022-11-29T11:31:57.698Z,102060.91
2022-11-29T11:34:38.173Z,102051.78
2022-11-29T11:37:20.059Z,102062.78
2022-11-29T11:39:50.169Z,102064.66
2022-11-29T11:42:23.995Z,102068.78
2022-11-29T11:44:51.180Z,102073.28
2022-11-29T11:47:20.407Z,102064.75
2022-11-29T11:49:55.527Z,102072.31
2022-11-29T11:52:38.302Z,102070.91
2022-11-29T11:55:21.883Z,102084.13
2022-11-29T11:58:10.336Z,102073.28
2022-11-29T12:01:06.216Z,102073.69
2022-11-29T12:04:14.525Z,102069.63
2022-11-29T12:06:52.001Z,102083.38
2022-11-29T12:09:33.987Z,102081.06
2022-11-29T12:12:21.014Z,102086.66
2022-11-29T12:15:02.128Z,102080.78
2022-11-29T12:17:35.340Z,102092.34
2022-11-29T12:20:07.408Z,102091.41
2022-11-29T12:23:03.276Z,102092.72
2022-11-29T12:25:34.460Z,102092.31
2022-11-29T12:28:00.926Z,102099.59
2022-11-29T12:30:27.576Z,102099.81
2022-11-29T12:33:19.886Z,102103.13
2022-11-29T12:36:07.361Z,102096.72
2022-11-29T12:38:43.795Z,102107.72
2022-11-29T12:41:29.657Z,102102.31
2022-11-29T12:44:08.200Z,102112.59
2022-11-29T12:46:35.314Z,102106.44
2022-11-29T12:49:33.510Z,102117.91
2022-11-29T12:51:59.776Z,102124.84
2022-11-29T12:54:38.276Z,102122.78
2022-11-29T12:57:19.738Z,102126.84
2022-11-29T13:00:07.607Z,102123.69
2022-11-29T13:03:04.801Z,102137.44
2022-11-29T13:05:46.136Z,102125.09
2022-11-29T13:08:31.029Z,102123.44
2022-11-29T13:11:28.508Z,102127.66
2022-11-29T13:14:42.000Z,102124.19
2022-11-29T13:17:32.836Z,102121.94
2022-11-29T13:20:19.678Z,102131.25
2022-11-29T13:22:54.993Z,102135.56
2022-11-29T13:25:30.084Z,102131.25
2022-11-29T13:28:01.689Z,102136.03
2022-11-29T13:30:28.260Z,102134.19
2022-11-29T13:32:59.116Z,102130.59
2022-11-29T13:35:49.972Z,102141.88
2022-11-29T13:38:29.890Z,102145.78
2022-11-29T13:41:38.424Z,102142.84
2022-11-29T13:44:46.130Z,102150.72
2022-11-29T13:47:17.884Z,102137.13
2022-11-29T13:50:26.484Z,102150.19
2022-11-29T13:53:03.768Z,102141.13
2022-11-29T13:55:30.390Z,102143.72
2022-11-29T13:58:16.728Z,102150.66
2022-11-29T14:00:43.456Z,102149.00
2022-11-29T14:03:27.717Z,102154.31
2022-11-29T14:06:10.418Z,102148.91
2022-11-29T14:09:16.762Z,102148.06
2022-11-29T14:11:37.744Z,102147.31
2022-11-29T14:14:16.917Z,102147.59
2022-11-29T14:17:01.991Z,102147.53
2022-11-29T14:19:36.837Z,102149.13
2022-11-29T14:22:03.282Z,102147.19
2022-11-29T14:24:32.605Z,102146.84
2022-11-29T14:27:08.087Z,102145.22
2022-11-29T14:29:49.739Z,102150.06
2022-11-29T14:32:46.196Z,102153.47
2022-11-29T14:35:12.843Z,102156.25
2022-11-29T14:38:04.202Z,102149.34
2022-11-29T14:40:45.963Z,102154.28
2022-11-29T14:43:30.631Z,102157.97
2022-11-29T14:46:15.461Z,102170.41
2022-11-29T14:49:04.323Z,102165.72
2022-11-29T14:51:33.085Z,102164.50
2022-11-29T14:54:19.106Z,102166.00
2022-11-29T14:56:46.668Z,102160.22
2022-11-29T14:59:37.845Z,102175.13
2022-11-29T15:02:41.782Z,102167.44
2022-11-29T15:05:21.787Z,102163.50
2022-11-29T15:08:08.539Z,102166.31
2022-11-29T15:10:40.867Z,102169.22
2022-11-29T15:13:11.986Z,102162.47
2022-11-29T15:16:10.462Z,102168.69
2022-11-29T15:19:11.164Z,102163.97
2022-11-29T15:22:05.548Z,102170.06
2022-11-29T15:24:31.788Z,102182.22
2022-11-29T15:26:59.990Z,102176.16
2022-11-29T15:29:27.686Z,102173.72
2022-11-29T15:31:57.083Z,102173.53
2022-11-29T15:34:47.337Z,102171.63
2022-11-29T15:37:38.614Z,102170.16
2022-11-29T15:40:18.286Z,102174.19
2022-11-29T15:42:50.083Z,102177.28
2022-11-29T15:45:34.134Z,102176.78
2022-11-29T15:48:39.307Z,102187.75
2022-11-29T15:51:21.387Z,102198.16
2022-11-29T15:54:00.433Z,102198.53
2022-11-29T15:57:03.500Z,102198.19
2022-11-29T15:59:46.580Z,102202.13
2022-11-29T16:02:18.485Z,102207.00
2022-11-29T16:04:47.248Z,102207.19
2022-11-29T16:07:14.836Z,102205.53
2022-11-29T16:09:45.227Z,102208.44
2022-11-29T16:12:14.452Z,102200.53
2022-11-29T16:14:55.195Z,102206.59
2022-11-29T16:17:24.648Z,102210.94
2022-11-29T16:19:51.052Z,102200.53
2022-11-29T16:22:23.596Z,102211.41
2022-11-29T16:25:05.706Z,102217.56
2022-11-29T16:27:36.244Z,102216.25
2022-11-29T16:30:04.471Z,102216.66
2022-11-29T16:32:38.065Z,102217.34
2022-11-29T16:35:22.653Z,102214.84
2022-11-29T16:37:49.071Z,102212.94
2022-11-29T16:40:28.388Z,102223.19
2022-11-29T16:43:03.599Z,102224.91
2022-11-29T16:45:38.617Z,102222.19
2022-11-29T16:48:30.028Z,102221.84
2022-11-29T16:51:26.732Z,102220.78
2022-11-29T16:53:54.127Z,102218.75
2022-11-29T16:56:23.348Z,102224.94
2022-11-29T16:59:20.743Z,102226.06
2022-11-29T17:01:39.999Z,102217.22
2022-11-29T17:04:08.535Z,102219.84
2022-11-29T17:06:35.019Z,102228.19
2022-11-29T17:09:01.623Z,102219.84
2022-11-29T17:11:28.004Z,102227.97
2022-11-29T17:13:54.323Z,102232.44
2022-11-29T17:16:22.969Z,102227.03
2022-11-29T17:18:49.515Z,102230.97
2022-11-29T17:21:25.902Z,102234.44
2022-11-29T17:23:53.024Z,102238.19
2022-11-29T17:26:20.910Z,102234.91
2022-11-29T17:28:48.782Z,102234.91
2022-11-29T17:31:17.813Z,102234.91
2022-11-29T17:33:44.498Z,102235.00
2022-11-29T17:36:13.193Z,102236.84
2022-11-29T17:38:39.471Z,102242.13
2022-11-29T17:41:10.923Z,102252.63
2022-11-29T17:43:37.753Z,102256.09
2022-11-29T17:46:08.189Z,102248.22
2022-11-29T17:48:34.712Z,102244.81
2022-11-29T17:51:01.498Z,102250.31
2022-11-29T17:53:27.900Z,102251.16
2022-11-29T17:55:54.175Z,102250.22
2022-11-29T17:58:20.513Z,102251.94
2022-11-29T18:00:46.837Z,102260.03
2022-11-29T18:03:13.166Z,102259.16
2022-11-29T18:05:39.724Z,102261.00
2022-11-29T18:08:07.010Z,102261.00
2022-11-29T18:10:33.280Z,102269.25
2022-11-29T18:12:59.609Z,102269.94
2022-11-29T18:15:25.954Z,102267.13
2022-11-29T18:17:52.245Z,102276.97
2022-11-29T18:20:18.579Z,102272.63
2022-11-29T18:22:44.902Z,102270.03
2022-11-29T18:25:37.549Z,102277.25
2022-11-29T18:27:57.454Z,102271.00
2022-11-29T18:30:23.730Z,102273.97
2022-11-29T18:32:49.994Z,102275.31
2022-11-29T18:35:16.479Z,102287.66
2022-11-29T18:38:13.657Z,102281.28
2022-11-29T18:40:29.378Z,102285.56
2022-11-29T18:42:55.683Z,102276.50
2022-11-29T18:45:22.084Z,102282.66
2022-11-29T18:47:48.400Z,102282.56
2022-11-29T18:50:14.799Z,102291.63
2022-11-29T18:52:41.100Z,102286.06
2022-11-29T18:55:07.882Z,102288.66
2022-11-29T18:57:36.129Z,102288.66
2022-11-29T19:00:03.331Z,102286.63
2022-11-29T19:02:29.681Z,102294.81
2022-11-29T19:04:56.008Z,102297.50
2022-11-29T19:07:22.356Z,102296.56
2022-11-29T19:09:48.749Z,102294.03
2022-11-29T19:12:15.127Z,102301.78
2022-11-29T19:14:46.505Z,102298.28
2022-11-29T19:17:16.362Z,102298.28
2022-11-29T19:19:42.931Z,102298.41
2022-11-29T19:22:09.497Z,102306.97
2022-11-29T19:24:35.872Z,102300.59
2022-11-29T19:27:02.164Z,102307.94
2022-11-29T19:29:28.893Z,102299.75
2022-11-29T19:31:55.290Z,102304.47
2022-11-29T19:34:21.712Z,102297.91
2022-11-29T19:36:48.440Z,102303.25
2022-11-29T19:39:17.502Z,102301.50
2022-11-29T19:41:46.605Z,102305.16
2022-11-29T19:44:13.169Z,102300.59
2022-11-29T19:46:42.693Z,102308.78
2022-11-29T19:49:09.905Z,102311.97
2022-11-29T19:51:36.495Z,102307.75
2022-11-29T19:54:05.808Z,102309.47
2022-11-29T19:56:32.650Z,102315.66
2022-11-29T19:58:59.510Z,102307.47
2022-11-29T20:01:28.253Z,102313.94
2022-11-29T20:03:56.328Z,102324.63
2022-11-29T20:06:22.786Z,102325.47
2022-11-29T20:08:49.396Z,102322.03
2022-11-29T20:11:21.139Z,102325.56
2022-11-29T20:13:53.228Z,102322.88
2022-11-29T20:16:19.614Z,102330.09
2022-11-29T20:18:50.931Z,102331.81
2022-11-29T20:21:24.941Z,102325.47
2022-11-29T20:23:59.049Z,102325.31
2022-11-29T20:26:26.581Z,102326.44
2022-11-29T20:28:52.873Z,102329.13
2022-11-29T20:31:20.878Z,102337.22
2022-11-29T20:33:47.487Z,102330.94
2022-11-29T20:36:16.580Z,102334.53
2022-11-29T20:38:54.523Z,102335.41
2022-11-29T20:41:27.286Z,102335.59
2022-11-29T20:43:59.705Z,102343.69
2022-11-29T20:46:27.673Z,102329.31
2022-11-29T20:48:55.139Z,102346.44
2022-11-29T20:51:36.935Z,102338.19
2022-11-29T20:54:03.512Z,102334.72
2022-11-29T20:56:29.834Z,102344.63
2022-11-29T20:58:56.499Z,102351.47
2022-11-29T21:01:22.983Z,102345.13
2022-11-29T21:03:49.543Z,102355.06
2022-11-29T21:06:15.883Z,102351.38
2022-11-29T21:08:42.482Z,102348.59
2022-11-29T21:11:09.641Z,102346.78
2022-11-29T21:13:36.629Z,102358.25
2022-11-29T21:16:03.693Z,102354.69
2022-11-29T21:18:30.683Z,102356.41
2022-11-29T21:21:26.234Z,102360.94
2022-11-29T21:24:00.618Z,102369.03
2022-11-29T21:26:44.598Z,102366.78
2022-11-29T21:29:14.183Z,102377.47
2022-11-29T21:31:40.741Z,102365.66
2022-11-29T21:34:07.127Z,102367.47
2022-11-29T21:36:33.724Z,102367.56
2022-11-29T21:39:04.875Z,102371.03
2022-11-29T21:41:32.020Z,102371.94
2022-11-29T21:44:06.436Z,102376.53
2022-11-29T21:46:33.620Z,102380.06
2022-11-29T21:48:59.972Z,102377.47
2022-11-29T21:51:26.307Z,102382.03
2022-11-29T21:53:52.631Z,102378.06
2022-11-29T21:56:18.942Z,102381.53
2022-11-29T21:58:45.412Z,102379.31
2022-11-29T22:01:14.295Z,102378.16
2022-11-29T22:03:41.630Z,102382.78
2022-11-29T22:06:10.170Z,102376.94
2022-11-29T22:08:38.218Z,102381.34
2022-11-29T22:11:07.333Z,102389.44
2022-11-29T22:13:33.764Z,102381.53
2022-11-29T22:16:10.357Z,102384.16
2022-11-29T22:18:36.913Z,102382.31
2022-11-29T22:21:05.156Z,102385.22
2022-11-29T22:23:31.805Z,102383.31
2022-11-29T22:26:05.754Z,102390.50
2022-11-29T22:28:32.852Z,102389.53
2022-11-29T22:31:07.066Z,102390.41
2022-11-29T22:33:34.284Z,102386.00
2022-11-29T22:36:08.897Z,102391.44
2022-11-29T22:38:35.499Z,102389.53
2022-11-29T22:41:03.946Z,102395.72
2022-11-29T22:43:31.530Z,102396.53
2022-11-29T22:46:08.212Z,102396.63
2022-11-29T22:48:38.737Z,102394.00
2022-11-29T22:51:14.510Z,102401.94
2022-11-29T22:53:43.483Z,102398.25
2022-11-29T22:56:11.373Z,102402.72
2022-11-29T22:58:37.824Z,102401.84
2022-11-29T23:01:13.170Z,102407.22
2022-11-29T23:03:42.094Z,102410.03
2022-11-29T23:06:14.123Z,102407.03
2022-11-29T23:08:42.185Z,102416.97
2022-11-29T23:11:11.643Z,102416.41
2022-11-29T23:13:40.180Z,102411.84
2022-11-29T23:16:09.546Z,102415.56
2022-11-29T23:18:36.338Z,102411.91
2022-11-29T23:21:05.449Z,102411.13
2022-11-29T23:23:32.479Z,102413.91
2022-11-29T23:25:59.528Z,102422.69
2022-11-29T23:28:26.756Z,102412.88
2022-11-29T23:30:53.296Z,102413.13
2022-11-29T23:33:21.071Z,102421.06
2022-11-29T23:35:48.039Z,102426.44
2022-11-29T23:38:14.674Z,102416.50
2022-11-29T23:40:41.034Z,102416.59
2022-11-29T23:43:07.438Z,102426.34
2022-11-29T23:45:36.146Z,102416.41
2022-11-29T23:48:02.695Z,102415.66
2022-11-29T23:50:29.024Z,102427.38
2022-11-29T23:52:55.760Z,102423.91
2022-11-29T23:55:24.677Z,102420.47
2022-11-29T23:57:51.711Z,102420.63
